Orwell — ORTV — position and weather

sailwx.info

Track history (hours):
 
Tides and Currents Weather Stations Pressure Air Temp Water Temp Dewpoint Dewpoint Depression Visibility Wind Speed Wind Dir Waves Ship Positions

Orwell

Last reported at 2017-Nov-30 16:42 UTC. Time now 2017-Dec-11 11:33 UTC.
Position N 06°26' E 003°24'.
Warning: this ship's position is 10 days out of date.

Length 90 m; draft 3 m.

Type: Dredging. MMSI: 205054000.

Date/timePositionNaut miles runAvg speedWind from/ knotsBaromVisibWave heightAir tempDewpointWater temp
2017-Nov-30 16:42N 06°26' E 003°24'120 2.5
2017-Nov-28 17:39N 06°02' E 001°26'0 3.3
2017-Nov-28 17:30N 06°02' E 001°25'5 9.0
2017-Nov-28 17:00N 06°03' E 001°21'510.5
2017-Nov-28 16:30N 06°04' E 001°16'1 1.0
2017-Nov-28 15:00N 06°04' E 001°14'0 0.0
2017-Nov-28 14:30N 06°04' E 001°14'0 0.0
2017-Nov-28 08:03N 06°04' E 001°14'0 0.0
2017-Nov-28 08:00N 06°04' E 001°14'0 0.0
2017-Nov-28 07:27N 06°04' E 001°14'0 0.0
2017-Nov-28 07:00N 06°04' E 001°14'  
Track history (hours):
 
Tides and Currents Weather Stations Pressure Air Temp Water Temp Dewpoint Dewpoint Depression Visibility Wind Speed Wind Dir Waves Ship Positions

Orwell

Last reported at 2017-Nov-30 16:42 UTC. Time now 2017-Dec-11 11:33 UTC.
Position N 06°26' E 003°24'.
Warning: this ship's position is 10 days out of date.

Length 90 m; draft 3 m.

Type: Dredging. MMSI: 205054000.

Date/timePositionNaut miles runAvg speedWind from/ knotsBaromVisibWave heightAir tempDewpointWater temp
2017-Nov-30 16:42N 06°26' E 003°24'120 2.5
2017-Nov-28 17:39N 06°02' E 001°26'0 3.3
2017-Nov-28 17:30N 06°02' E 001°25'5 9.0
2017-Nov-28 17:00N 06°03' E 001°21'510.5
2017-Nov-28 16:30N 06°04' E 001°16'1 1.0
2017-Nov-28 15:00N 06°04' E 001°14'0 0.0
2017-Nov-28 14:30N 06°04' E 001°14'0 0.0
2017-Nov-28 08:03N 06°04' E 001°14'0 0.0
2017-Nov-28 08:00N 06°04' E 001°14'0 0.0
2017-Nov-28 07:27N 06°04' E 001°14'0 0.0
2017-Nov-28 07:00N 06°04' E 001°14'  

Dump ship's entire track history